sensor_id;sensor_type;location;lat;lon;timestamp;P1;durP1;ratioP1;P2;durP2;ratioP2
47882;SDS011;37739;50.350;7.578;2024-01-15T00:02:17;16.93;;;11.30;;
47882;SDS011;37739;50.350;7.578;2024-01-15T00:04:45;20.70;;;11.10;;
47882;SDS011;37739;50.350;7.578;2024-01-15T00:07:13;16.83;;;9.40;;
47882;SDS011;37739;50.350;7.578;2024-01-15T00:09:39;15.20;;;8.90;;
47882;SDS011;37739;50.350;7.578;2024-01-15T00:12:05;19.80;;;11.10;;
47882;SDS011;37739;50.350;7.578;2024-01-15T00:14:35;14.33;;;9.97;;
47882;SDS011;37739;50.350;7.578;2024-01-15T00:17:00;21.30;;;11.60;;
47882;SDS011;37739;50.350;7.578;2024-01-15T00:19:30;19.30;;;11.70;;
47882;SDS011;37739;50.350;7.578;2024-01-15T00:21:57;13.53;;;8.83;;
47882;SDS011;37739;50.350;7.578;2024-01-15T00:24:23;16.77;;;9.97;;
47882;SDS011;37739;50.350;7.578;2024-01-15T00:26:49;20.17;;;10.43;;
47882;SDS011;37739;50.350;7.578;2024-01-15T00:29:14;19.50;;;10.57;;
47882;SDS011;37739;50.350;7.578;2024-01-15T00:31:39;14.87;;;9.03;;
47882;SDS011;37739;50.350;7.578;2024-01-15T00:34:05;18.60;;;11.33;;
47882;SDS011;37739;50.350;7.578;2024-01-15T00:36:30;17.03;;;11.30;;
47882;SDS011;37739;50.350;7.578;2024-01-15T00:38:55;17.40;;;10.47;;
47882;SDS011;37739;50.350;7.578;2024-01-15T00:41:21;18.60;;;10.67;;
47882;SDS011;37739;50.350;7.578;2024-01-15T00:43:46;16.47;;;10.37;;
47882;SDS011;37739;50.350;7.578;2024-01-15T00:46:16;17.57;;;11.07;;
47882;SDS011;37739;50.350;7.578;2024-01-15T00:48:42;21.20;;;11.53;;
47882;SDS011;37739;50.350;7.578;2024-01-15T00:51:11;21.53;;;11.20;;
47882;SDS011;37739;50.350;7.578;2024-01-15T00:53:37;16.07;;;10.70;;
47882;SDS011;37739;50.350;7.578;2024-01-15T00:56:04;19.97;;;11.07;;
47882;SDS011;37739;50.350;7.578;2024-01-15T00:58:29;19.20;;;11.60;;
47882;SDS011;37739;50.350;7.578;2024-01-15T01:00:57;18.83;;;11.13;;
47882;SDS011;37739;50.350;7.578;2024-01-15T01:03:22;16.70;;;10.90;;
47882;SDS011;37739;50.350;7.578;2024-01-15T01:05:50;18.10;;;11.87;;
47882;SDS011;37739;50.350;7.578;2024-01-15T01:08:15;17.27;;;11.03;;
47882;SDS011;37739;50.350;7.578;2024-01-15T01:10:41;16.67;;;10.00;;
47882;SDS011;37739;50.350;7.578;2024-01-15T01:13:09;17.83;;;10.33;;
47882;SDS011;37739;50.350;7.578;2024-01-15T01:15:34;17.40;;;11.20;;
47882;SDS011;37739;50.350;7.578;2024-01-15T01:18:02;18.77;;;11.80;;
47882;SDS011;37739;50.350;7.578;2024-01-15T01:20:28;19.70;;;10.70;;
47882;SDS011;37739;50.350;7.578;2024-01-15T01:22:55;19.27;;;10.93;;
47882;SDS011;37739;50.350;7.578;2024-01-15T01:25:22;17.63;;;9.50;;
47882;SDS011;37739;50.350;7.578;2024-01-15T01:27:48;20.17;;;10.70;;
47882;SDS011;37739;50.350;7.578;2024-01-15T01:30:16;19.33;;;12.10;;
47882;SDS011;37739;50.350;7.578;2024-01-15T01:32:41;15.60;;;9.37;;
47882;SDS011;37739;50.350;7.578;2024-01-15T01:35:09;16.37;;;9.53;;
47882;SDS011;37739;50.350;7.578;2024-01-15T01:37:34;17.37;;;10.97;;
47882;SDS011;37739;50.350;7.578;2024-01-15T01:40:02;16.53;;;10.37;;
47882;SDS011;37739;50.350;7.578;2024-01-15T01:42:30;17.00;;;10.10;;
47882;SDS011;37739;50.350;7.578;2024-01-15T01:44:55;20.40;;;11.80;;
47882;SDS011;37739;50.350;7.578;2024-01-15T01:47:20;16.37;;;9.43;;
47882;SDS011;37739;50.350;7.578;2024-01-15T01:49:46;19.50;;;11.60;;
47882;SDS011;37739;50.350;7.578;2024-01-15T01:52:11;18.50;;;11.43;;
47882;SDS011;37739;50.350;7.578;2024-01-15T01:54:37;17.07;;;10.77;;
47882;SDS011;37739;50.350;7.578;2024-01-15T01:57:07;22.80;;;11.83;;
47882;SDS011;37739;50.350;7.578;2024-01-15T01:59:34;21.50;;;11.87;;
47882;SDS011;37739;50.350;7.578;2024-01-15T02:02:00;21.30;;;10.50;;
47882;SDS011;37739;50.350;7.578;2024-01-15T02:04:31;16.67;;;12.13;;
47882;SDS011;37739;50.350;7.578;2024-01-15T02:06:58;16.37;;;10.33;;
47882;SDS011;37739;50.350;7.578;2024-01-15T02:09:24;17.87;;;10.40;;
47882;SDS011;37739;50.350;7.578;2024-01-15T02:11:50;19.67;;;11.37;;
47882;SDS011;37739;50.350;7.578;2024-01-15T02:14:15;16.07;;;11.40;;
47882;SDS011;37739;50.350;7.578;2024-01-15T02:16:41;19.50;;;10.60;;
47882;SDS011;37739;50.350;7.578;2024-01-15T02:19:14;18.80;;;10.20;;
47882;SDS011;37739;50.350;7.578;2024-01-15T02:21:42;16.97;;;10.10;;
47882;SDS011;37739;50.350;7.578;2024-01-15T02:24:08;15.47;;;10.47;;
47882;SDS011;37739;50.350;7.578;2024-01-15T02:26:34;16.77;;;11.20;;
47882;SDS011;37739;50.350;7.578;2024-01-15T02:29:03;18.23;;;10.23;;
47882;SDS011;37739;50.350;7.578;2024-01-15T02:31:30;18.00;;;12.13;;
47882;SDS011;37739;50.350;7.578;2024-01-15T02:33:59;21.53;;;12.10;;
47882;SDS011;37739;50.350;7.578;2024-01-15T02:36:27;14.80;;;9.70;;
47882;SDS011;37739;50.350;7.578;2024-01-15T02:38:52;19.53;;;11.37;;
47882;SDS011;37739;50.350;7.578;2024-01-15T02:41:17;21.70;;;11.43;;
47882;SDS011;37739;50.350;7.578;2024-01-15T02:43:43;13.67;;;8.83;;
47882;SDS011;37739;50.350;7.578;2024-01-15T02:46:09;20.90;;;12.17;;
47882;SDS011;37739;50.350;7.578;2024-01-15T02:48:39;19.33;;;11.63;;
47882;SDS011;37739;50.350;7.578;2024-01-15T02:51:04;20.30;;;11.60;;
47882;SDS011;37739;50.350;7.578;2024-01-15T02:53:31;18.60;;;10.70;;
47882;SDS011;37739;50.350;7.578;2024-01-15T02:56:01;20.37;;;11.67;;
47882;SDS011;37739;50.350;7.578;2024-01-15T02:58:29;20.67;;;12.47;;
47882;SDS011;37739;50.350;7.578;2024-01-15T03:00:54;20.23;;;12.37;;
47882;SDS011;37739;50.350;7.578;2024-01-15T03:03:19;18.30;;;10.73;;
47882;SDS011;37739;50.350;7.578;2024-01-15T03:05:45;20.87;;;12.87;;
47882;SDS011;37739;50.350;7.578;2024-01-15T03:08:14;19.90;;;11.80;;
47882;SDS011;37739;50.350;7.578;2024-01-15T03:10:40;21.03;;;11.93;;
47882;SDS011;37739;50.350;7.578;2024-01-15T03:13:07;21.60;;;12.47;;
47882;SDS011;37739;50.350;7.578;2024-01-15T03:15:33;24.57;;;13.30;;
47882;SDS011;37739;50.350;7.578;2024-01-15T03:18:00;23.70;;;12.23;;
47882;SDS011;37739;50.350;7.578;2024-01-15T03:20:25;19.70;;;11.53;;
47882;SDS011;37739;50.350;7.578;2024-01-15T03:22:55;19.27;;;12.20;;
47882;SDS011;37739;50.350;7.578;2024-01-15T03:25:20;18.90;;;12.30;;
47882;SDS011;37739;50.350;7.578;2024-01-15T03:27:48;16.53;;;11.00;;
47882;SDS011;37739;50.350;7.578;2024-01-15T03:30:16;22.93;;;12.33;;
47882;SDS011;37739;50.350;7.578;2024-01-15T03:32:41;24.80;;;12.47;;
47882;SDS011;37739;50.350;7.578;2024-01-15T03:35:06;24.13;;;12.03;;
47882;SDS011;37739;50.350;7.578;2024-01-15T03:37:34;19.20;;;10.57;;
47882;SDS011;37739;50.350;7.578;2024-01-15T03:40:00;21.10;;;11.30;;
47882;SDS011;37739;50.350;7.578;2024-01-15T03:42:25;26.73;;;12.70;;
47882;SDS011;37739;50.350;7.578;2024-01-15T03:44:51;26.43;;;13.53;;
47882;SDS011;37739;50.350;7.578;2024-01-15T03:47:16;22.67;;;12.17;;
47882;SDS011;37739;50.350;7.578;2024-01-15T03:49:41;21.27;;;11.73;;
47882;SDS011;37739;50.350;7.578;2024-01-15T03:52:07;23.50;;;12.50;;
47882;SDS011;37739;50.350;7.578;2024-01-15T03:54:32;23.90;;;12.03;;
47882;SDS011;37739;50.350;7.578;2024-01-15T03:57:00;22.30;;;12.93;;
47882;SDS011;37739;50.350;7.578;2024-01-15T03:59:26;26.30;;;13.33;;
47882;SDS011;37739;50.350;7.578;2024-01-15T04:01:53;20.53;;;11.50;;
47882;SDS011;37739;50.350;7.578;2024-01-15T04:04:18;22.47;;;11.80;;
47882;SDS011;37739;50.350;7.578;2024-01-15T04:06:46;23.70;;;14.27;;
47882;SDS011;37739;50.350;7.578;2024-01-15T04:09:12;18.10;;;11.10;;
47882;SDS011;37739;50.350;7.578;2024-01-15T04:11:42;20.80;;;10.50;;
47882;SDS011;37739;50.350;7.578;2024-01-15T04:14:10;22.40;;;11.40;;
47882;SDS011;37739;50.350;7.578;2024-01-15T04:16:36;20.90;;;12.23;;
47882;SDS011;37739;50.350;7.578;2024-01-15T04:19:02;20.47;;;11.63;;
47882;SDS011;37739;50.350;7.578;2024-01-15T04:21:27;20.97;;;12.17;;
47882;SDS011;37739;50.350;7.578;2024-01-15T04:23:55;22.20;;;12.40;;
47882;SDS011;37739;50.350;7.578;2024-01-15T04:26:23;19.40;;;11.53;;
47882;SDS011;37739;50.350;7.578;2024-01-15T04:28:48;24.90;;;13.77;;
47882;SDS011;37739;50.350;7.578;2024-01-15T04:31:20;21.83;;;12.57;;
47882;SDS011;37739;50.350;7.578;2024-01-15T04:33:51;26.63;;;13.37;;
47882;SDS011;37739;50.350;7.578;2024-01-15T04:36:19;21.93;;;12.13;;
47882;SDS011;37739;50.350;7.578;2024-01-15T04:38:45;31.00;;;16.50;;
47882;SDS011;37739;50.350;7.578;2024-01-15T04:41:13;22.97;;;13.30;;
47882;SDS011;37739;50.350;7.578;2024-01-15T04:43:42;24.33;;;12.60;;
47882;SDS011;37739;50.350;7.578;2024-01-15T04:46:07;22.03;;;13.10;;
47882;SDS011;37739;50.350;7.578;2024-01-15T04:48:36;27.17;;;13.73;;
47882;SDS011;37739;50.350;7.578;2024-01-15T04:51:04;20.40;;;10.73;;
47882;SDS011;37739;50.350;7.578;2024-01-15T04:53:34;24.60;;;13.50;;
47882;SDS011;37739;50.350;7.578;2024-01-15T04:56:01;25.43;;;13.60;;
47882;SDS011;37739;50.350;7.578;2024-01-15T04:58:32;27.30;;;14.47;;
47882;SDS011;37739;50.350;7.578;2024-01-15T05:01:00;19.97;;;12.07;;
47882;SDS011;37739;50.350;7.578;2024-01-15T05:03:27;21.90;;;11.60;;
47882;SDS011;37739;50.350;7.578;2024-01-15T05:05:57;23.83;;;14.07;;
47882;SDS011;37739;50.350;7.578;2024-01-15T05:08:22;24.43;;;13.20;;
47882;SDS011;37739;50.350;7.578;2024-01-15T05:10:50;23.90;;;13.13;;
47882;SDS011;37739;50.350;7.578;2024-01-15T05:13:18;30.13;;;15.10;;
47882;SDS011;37739;50.350;7.578;2024-01-15T05:15:43;27.20;;;12.83;;
47882;SDS011;37739;50.350;7.578;2024-01-15T05:18:08;27.70;;;14.63;;
47882;SDS011;37739;50.350;7.578;2024-01-15T05:20:34;25.07;;;13.90;;
47882;SDS011;37739;50.350;7.578;2024-01-15T05:22:59;31.20;;;15.50;;
47882;SDS011;37739;50.350;7.578;2024-01-15T05:25:29;25.93;;;14.20;;
47882;SDS011;37739;50.350;7.578;2024-01-15T05:27:54;21.50;;;13.00;;
47882;SDS011;37739;50.350;7.578;2024-01-15T05:30:22;25.50;;;13.20;;
47882;SDS011;37739;50.350;7.578;2024-01-15T05:32:52;27.50;;;13.73;;
47882;SDS011;37739;50.350;7.578;2024-01-15T05:35:19;23.10;;;12.80;;
47882;SDS011;37739;50.350;7.578;2024-01-15T05:37:46;25.17;;;12.73;;
47882;SDS011;37739;50.350;7.578;2024-01-15T05:40:14;28.13;;;15.97;;
47882;SDS011;37739;50.350;7.578;2024-01-15T05:42:42;25.03;;;15.40;;
47882;SDS011;37739;50.350;7.578;2024-01-15T05:45:10;24.37;;;13.83;;
47882;SDS011;37739;50.350;7.578;2024-01-15T05:47:35;25.37;;;14.07;;
47882;SDS011;37739;50.350;7.578;2024-01-15T05:50:03;25.77;;;14.20;;
47882;SDS011;37739;50.350;7.578;2024-01-15T05:52:31;27.20;;;14.10;;
47882;SDS011;37739;50.350;7.578;2024-01-15T05:54:59;28.43;;;14.70;;
47882;SDS011;37739;50.350;7.578;2024-01-15T05:57:27;25.90;;;14.67;;
47882;SDS011;37739;50.350;7.578;2024-01-15T05:59:55;20.53;;;12.37;;
47882;SDS011;37739;50.350;7.578;2024-01-15T06:02:21;22.47;;;13.43;;
47882;SDS011;37739;50.350;7.578;2024-01-15T06:04:46;26.27;;;13.07;;
47882;SDS011;37739;50.350;7.578;2024-01-15T06:07:14;25.63;;;14.87;;
47882;SDS011;37739;50.350;7.578;2024-01-15T06:09:39;27.80;;;15.10;;
47882;SDS011;37739;50.350;7.578;2024-01-15T06:12:09;27.93;;;13.40;;
47882;SDS011;37739;50.350;7.578;2024-01-15T06:14:39;25.37;;;14.53;;
47882;SDS011;37739;50.350;7.578;2024-01-15T06:17:04;24.10;;;13.00;;
47882;SDS011;37739;50.350;7.578;2024-01-15T06:19:29;21.53;;;13.33;;
47882;SDS011;37739;50.350;7.578;2024-01-15T06:21:55;26.43;;;12.73;;
47882;SDS011;37739;50.350;7.578;2024-01-15T06:24:24;32.90;;;16.07;;
47882;SDS011;37739;50.350;7.578;2024-01-15T06:26:50;25.23;;;13.63;;
47882;SDS011;37739;50.350;7.578;2024-01-15T06:29:18;24.97;;;14.50;;
47882;SDS011;37739;50.350;7.578;2024-01-15T06:31:43;26.87;;;15.30;;
47882;SDS011;37739;50.350;7.578;2024-01-15T06:34:09;24.33;;;13.87;;
47882;SDS011;37739;50.350;7.578;2024-01-15T06:36:34;28.03;;;18.27;;
47882;SDS011;37739;50.350;7.578;2024-01-15T06:39:02;34.83;;;18.33;;
47882;SDS011;37739;50.350;7.578;2024-01-15T06:41:27;33.63;;;18.00;;
47882;SDS011;37739;50.350;7.578;2024-01-15T06:43:53;23.93;;;13.50;;
47882;SDS011;37739;50.350;7.578;2024-01-15T06:46:20;22.33;;;13.70;;
47882;SDS011;37739;50.350;7.578;2024-01-15T06:48:51;21.53;;;13.80;;
47882;SDS011;37739;50.350;7.578;2024-01-15T06:51:16;22.40;;;13.27;;
47882;SDS011;37739;50.350;7.578;2024-01-15T06:53:41;26.20;;;13.50;;
47882;SDS011;37739;50.350;7.578;2024-01-15T06:56:09;27.63;;;15.63;;
47882;SDS011;37739;50.350;7.578;2024-01-15T06:58:35;24.90;;;14.33;;
47882;SDS011;37739;50.350;7.578;2024-01-15T07:01:00;27.97;;;15.23;;
47882;SDS011;37739;50.350;7.578;2024-01-15T07:03:28;28.00;;;14.13;;
47882;SDS011;37739;50.350;7.578;2024-01-15T07:05:53;28.53;;;15.90;;
47882;SDS011;37739;50.350;7.578;2024-01-15T07:08:20;23.03;;;14.73;;
47882;SDS011;37739;50.350;7.578;2024-01-15T07:10:46;24.80;;;15.43;;
47882;SDS011;37739;50.350;7.578;2024-01-15T07:13:11;25.50;;;13.70;;
47882;SDS011;37739;50.350;7.578;2024-01-15T07:15:36;26.67;;;14.50;;
47882;SDS011;37739;50.350;7.578;2024-01-15T07:18:02;25.13;;;13.70;;
47882;SDS011;37739;50.350;7.578;2024-01-15T07:20:34;22.80;;;13.23;;
47882;SDS011;37739;50.350;7.578;2024-01-15T07:23:04;26.13;;;15.50;;
47882;SDS011;37739;50.350;7.578;2024-01-15T07:25:32;23.57;;;12.90;;
47882;SDS011;37739;50.350;7.578;2024-01-15T07:28:00;22.90;;;14.30;;
47882;SDS011;37739;50.350;7.578;2024-01-15T07:30:31;19.30;;;11.60;;
47882;SDS011;37739;50.350;7.578;2024-01-15T07:32:56;21.87;;;13.00;;
47882;SDS011;37739;50.350;7.578;2024-01-15T07:35:21;21.93;;;14.37;;
47882;SDS011;37739;50.350;7.578;2024-01-15T07:37:47;22.03;;;12.40;;
47882;SDS011;37739;50.350;7.578;2024-01-15T07:40:12;26.73;;;14.87;;
47882;SDS011;37739;50.350;7.578;2024-01-15T07:42:38;23.70;;;13.50;;
47882;SDS011;37739;50.350;7.578;2024-01-15T07:45:07;19.30;;;12.70;;
47882;SDS011;37739;50.350;7.578;2024-01-15T07:47:33;25.13;;;14.80;;
47882;SDS011;37739;50.350;7.578;2024-01-15T07:50:01;22.67;;;12.63;;
47882;SDS011;37739;50.350;7.578;2024-01-15T07:52:27;20.27;;;11.90;;
47882;SDS011;37739;50.350;7.578;2024-01-15T07:54:58;23.60;;;14.37;;
47882;SDS011;37739;50.350;7.578;2024-01-15T07:57:31;25.63;;;14.40;;
47882;SDS011;37739;50.350;7.578;2024-01-15T07:59:58;21.30;;;13.67;;
47882;SDS011;37739;50.350;7.578;2024-01-15T08:02:24;22.80;;;13.10;;
47882;SDS011;37739;50.350;7.578;2024-01-15T08:04:49;23.00;;;13.37;;
47882;SDS011;37739;50.350;7.578;2024-01-15T08:07:14;22.53;;;14.13;;
47882;SDS011;37739;50.350;7.578;2024-01-15T08:09:45;20.00;;;12.97;;
47882;SDS011;37739;50.350;7.578;2024-01-15T08:12:14;20.07;;;13.70;;
47882;SDS011;37739;50.350;7.578;2024-01-15T08:14:39;26.80;;;15.73;;
47882;SDS011;37739;50.350;7.578;2024-01-15T08:17:07;24.00;;;14.80;;
47882;SDS011;37739;50.350;7.578;2024-01-15T08:19:32;21.20;;;13.10;;
47882;SDS011;37739;50.350;7.578;2024-01-15T08:22:00;22.07;;;15.07;;
47882;SDS011;37739;50.350;7.578;2024-01-15T08:24:27;23.80;;;13.53;;
47882;SDS011;37739;50.350;7.578;2024-01-15T08:26:53;21.57;;;12.67;;
47882;SDS011;37739;50.350;7.578;2024-01-15T08:29:19;20.13;;;13.30;;
47882;SDS011;37739;50.350;7.578;2024-01-15T08:31:46;21.57;;;13.83;;
47882;SDS011;37739;50.350;7.578;2024-01-15T08:34:13;18.80;;;12.30;;
47882;SDS011;37739;50.350;7.578;2024-01-15T08:36:39;20.30;;;12.73;;
47882;SDS011;37739;50.350;7.578;2024-01-15T08:39:05;23.03;;;14.20;;
47882;SDS011;37739;50.350;7.578;2024-01-15T08:41:34;21.23;;;14.30;;
47882;SDS011;37739;50.350;7.578;2024-01-15T08:43:59;18.40;;;12.47;;
47882;SDS011;37739;50.350;7.578;2024-01-15T08:46:27;16.20;;;11.57;;
47882;SDS011;37739;50.350;7.578;2024-01-15T08:48:55;18.20;;;11.07;;
47882;SDS011;37739;50.350;7.578;2024-01-15T08:51:20;16.70;;;10.80;;
47882;SDS011;37739;50.350;7.578;2024-01-15T08:53:48;19.87;;;12.10;;
47882;SDS011;37739;50.350;7.578;2024-01-15T08:56:16;18.87;;;12.00;;
47882;SDS011;37739;50.350;7.578;2024-01-15T08:58:41;19.50;;;12.80;;
47882;SDS011;37739;50.350;7.578;2024-01-15T09:01:09;17.67;;;12.80;;
47882;SDS011;37739;50.350;7.578;2024-01-15T09:03:34;17.30;;;11.87;;
47882;SDS011;37739;50.350;7.578;2024-01-15T09:05:59;16.93;;;11.00;;
47882;SDS011;37739;50.350;7.578;2024-01-15T09:08:27;14.80;;;10.60;;
47882;SDS011;37739;50.350;7.578;2024-01-15T09:10:55;18.10;;;12.10;;
47882;SDS011;37739;50.350;7.578;2024-01-15T09:13:21;13.17;;;9.53;;
47882;SDS011;37739;50.350;7.578;2024-01-15T09:15:46;19.30;;;13.83;;
47882;SDS011;37739;50.350;7.578;2024-01-15T09:18:11;15.27;;;10.70;;
47882;SDS011;37739;50.350;7.578;2024-01-15T09:20:36;14.20;;;10.33;;
47882;SDS011;37739;50.350;7.578;2024-01-15T09:23:03;12.70;;;10.13;;
47882;SDS011;37739;50.350;7.578;2024-01-15T09:25:31;14.93;;;9.50;;
47882;SDS011;37739;50.350;7.578;2024-01-15T09:27:56;16.90;;;10.37;;
47882;SDS011;37739;50.350;7.578;2024-01-15T09:30:24;11.97;;;9.20;;
47882;SDS011;37739;50.350;7.578;2024-01-15T09:32:51;14.10;;;10.37;;
47882;SDS011;37739;50.350;7.578;2024-01-15T09:35:19;13.90;;;10.40;;
47882;SDS011;37739;50.350;7.578;2024-01-15T09:37:47;11.27;;;9.50;;
47882;SDS011;37739;50.350;7.578;2024-01-15T09:40:13;14.03;;;10.30;;
47882;SDS011;37739;50.350;7.578;2024-01-15T09:42:40;14.27;;;11.10;;
47882;SDS011;37739;50.350;7.578;2024-01-15T09:45:09;13.80;;;9.67;;
47882;SDS011;37739;50.350;7.578;2024-01-15T09:47:39;14.77;;;9.93;;
47882;SDS011;37739;50.350;7.578;2024-01-15T09:50:06;13.67;;;9.00;;
47882;SDS011;37739;50.350;7.578;2024-01-15T09:52:37;14.07;;;10.70;;
47882;SDS011;37739;50.350;7.578;2024-01-15T09:55:06;11.30;;;8.37;;
47882;SDS011;37739;50.350;7.578;2024-01-15T09:57:34;13.40;;;9.40;;
47882;SDS011;37739;50.350;7.578;2024-01-15T10:00:00;13.77;;;10.10;;
47882;SDS011;37739;50.350;7.578;2024-01-15T10:02:29;15.77;;;10.30;;
47882;SDS011;37739;50.350;7.578;2024-01-15T10:04:55;13.83;;;9.70;;
47882;SDS011;37739;50.350;7.578;2024-01-15T10:07:20;15.23;;;11.30;;
47882;SDS011;37739;50.350;7.578;2024-01-15T10:09:47;13.27;;;10.07;;
47882;SDS011;37739;50.350;7.578;2024-01-15T10:12:12;13.97;;;9.33;;
47882;SDS011;37739;50.350;7.578;2024-01-15T10:14:38;13.20;;;9.97;;
47882;SDS011;37739;50.350;7.578;2024-01-15T10:17:13;13.33;;;9.83;;
47882;SDS011;37739;50.350;7.578;2024-01-15T10:19:47;12.70;;;9.73;;
47882;SDS011;37739;50.350;7.578;2024-01-15T10:22:14;12.97;;;8.93;;
47882;SDS011;37739;50.350;7.578;2024-01-15T10:24:45;15.33;;;10.80;;
47882;SDS011;37739;50.350;7.578;2024-01-15T10:27:14;14.47;;;9.70;;
47882;SDS011;37739;50.350;7.578;2024-01-15T10:29:41;15.70;;;10.30;;
47882;SDS011;37739;50.350;7.578;2024-01-15T10:32:07;15.73;;;9.97;;
47882;SDS011;37739;50.350;7.578;2024-01-15T10:34:38;14.33;;;9.90;;
47882;SDS011;37739;50.350;7.578;2024-01-15T10:37:05;12.20;;;8.57;;
47882;SDS011;37739;50.350;7.578;2024-01-15T10:39:32;14.93;;;9.63;;
47882;SDS011;37739;50.350;7.578;2024-01-15T10:41:57;11.30;;;8.33;;
47882;SDS011;37739;50.350;7.578;2024-01-15T10:44:25;12.47;;;9.83;;
47882;SDS011;37739;50.350;7.578;2024-01-15T10:46:50;12.23;;;9.60;;
47882;SDS011;37739;50.350;7.578;2024-01-15T10:49:21;15.07;;;11.50;;
47882;SDS011;37739;50.350;7.578;2024-01-15T10:51:49;15.80;;;10.73;;
47882;SDS011;37739;50.350;7.578;2024-01-15T10:54:21;13.07;;;9.77;;
47882;SDS011;37739;50.350;7.578;2024-01-15T10:56:48;15.90;;;10.07;;
47882;SDS011;37739;50.350;7.578;2024-01-15T10:59:15;12.57;;;9.77;;
47882;SDS011;37739;50.350;7.578;2024-01-15T11:01:41;11.90;;;9.23;;
47882;SDS011;37739;50.350;7.578;2024-01-15T11:04:13;13.00;;;9.43;;
47882;SDS011;37739;50.350;7.578;2024-01-15T11:06:45;13.00;;;8.80;;
47882;SDS011;37739;50.350;7.578;2024-01-15T11:09:13;14.67;;;10.60;;
47882;SDS011;37739;50.350;7.578;2024-01-15T11:11:41;16.07;;;9.30;;
47882;SDS011;37739;50.350;7.578;2024-01-15T11:14:09;12.70;;;9.70;;
47882;SDS011;37739;50.350;7.578;2024-01-15T11:16:55;11.67;;;9.20;;
47882;SDS011;37739;50.350;7.578;2024-01-15T11:19:21;10.63;;;8.63;;
47882;SDS011;37739;50.350;7.578;2024-01-15T11:21:47;11.20;;;8.03;;
47882;SDS011;37739;50.350;7.578;2024-01-15T11:27:03;12.40;;;9.40;;
47882;SDS011;37739;50.350;7.578;2024-01-15T11:34:52;11.97;;;8.60;;
47882;SDS011;37739;50.350;7.578;2024-01-15T11:37:23;13.13;;;9.57;;
47882;SDS011;37739;50.350;7.578;2024-01-15T11:39:53;13.10;;;9.77;;
47882;SDS011;37739;50.350;7.578;2024-01-15T11:42:21;13.10;;;10.33;;
47882;SDS011;37739;50.350;7.578;2024-01-15T11:44:49;11.93;;;8.57;;
47882;SDS011;37739;50.350;7.578;2024-01-15T11:47:15;10.13;;;8.13;;
47882;SDS011;37739;50.350;7.578;2024-01-15T11:52:31;10.30;;;7.70;;
47882;SDS011;37739;50.350;7.578;2024-01-15T11:57:54;12.37;;;8.13;;
47882;SDS011;37739;50.350;7.578;2024-01-15T12:00:22;11.43;;;7.97;;
47882;SDS011;37739;50.350;7.578;2024-01-15T12:02:48;11.37;;;7.50;;
47882;SDS011;37739;50.350;7.578;2024-01-15T12:05:18;11.83;;;8.60;;
47882;SDS011;37739;50.350;7.578;2024-01-15T12:07:45;9.60;;;7.20;;
47882;SDS011;37739;50.350;7.578;2024-01-15T12:10:17;10.03;;;7.07;;
47882;SDS011;37739;50.350;7.578;2024-01-15T12:15:36;9.03;;;7.50;;
47882;SDS011;37739;50.350;7.578;2024-01-15T12:18:02;9.93;;;6.83;;
47882;SDS011;37739;50.350;7.578;2024-01-15T12:20:31;7.70;;;6.90;;
47882;SDS011;37739;50.350;7.578;2024-01-15T12:22:57;10.93;;;8.50;;
47882;SDS011;37739;50.350;7.578;2024-01-15T12:25:25;9.93;;;7.23;;
47882;SDS011;37739;50.350;7.578;2024-01-15T12:27:54;8.70;;;6.77;;
47882;SDS011;37739;50.350;7.578;2024-01-15T12:30:22;9.77;;;7.93;;
47882;SDS011;37739;50.350;7.578;2024-01-15T12:32:47;8.43;;;6.60;;
47882;SDS011;37739;50.350;7.578;2024-01-15T12:35:13;12.07;;;8.90;;
47882;SDS011;37739;50.350;7.578;2024-01-15T12:37:41;13.83;;;9.50;;
47882;SDS011;37739;50.350;7.578;2024-01-15T12:40:07;10.20;;;7.33;;
47882;SDS011;37739;50.350;7.578;2024-01-15T12:42:39;11.20;;;7.60;;
47882;SDS011;37739;50.350;7.578;2024-01-15T12:45:05;8.43;;;7.10;;
47882;SDS011;37739;50.350;7.578;2024-01-15T12:47:34;9.40;;;7.63;;
47882;SDS011;37739;50.350;7.578;2024-01-15T12:50:06;8.27;;;5.63;;
47882;SDS011;37739;50.350;7.578;2024-01-15T12:52:34;7.33;;;5.33;;
47882;SDS011;37739;50.350;7.578;2024-01-15T12:55:04;7.63;;;5.90;;
47882;SDS011;37739;50.350;7.578;2024-01-15T12:57:33;4.13;;;3.67;;
47882;SDS011;37739;50.350;7.578;2024-01-15T12:59:59;4.20;;;3.20;;
47882;SDS011;37739;50.350;7.578;2024-01-15T13:02:27;3.40;;;3.10;;
47882;SDS011;37739;50.350;7.578;2024-01-15T13:04:54;4.10;;;3.70;;
47882;SDS011;37739;50.350;7.578;2024-01-15T13:07:20;5.10;;;3.83;;
47882;SDS011;37739;50.350;7.578;2024-01-15T13:09:48;4.53;;;3.50;;
47882;SDS011;37739;50.350;7.578;2024-01-15T13:12:17;3.10;;;2.80;;
47882;SDS011;37739;50.350;7.578;2024-01-15T13:14:44;5.40;;;3.43;;
47882;SDS011;37739;50.350;7.578;2024-01-15T13:17:09;3.77;;;2.90;;
47882;SDS011;37739;50.350;7.578;2024-01-15T13:19:35;2.70;;;2.40;;
47882;SDS011;37739;50.350;7.578;2024-01-15T13:22:00;3.87;;;2.57;;
47882;SDS011;37739;50.350;7.578;2024-01-15T13:24:31;3.13;;;2.50;;
47882;SDS011;37739;50.350;7.578;2024-01-15T13:26:59;4.27;;;3.10;;
47882;SDS011;37739;50.350;7.578;2024-01-15T13:29:30;3.27;;;2.30;;
47882;SDS011;37739;50.350;7.578;2024-01-15T13:31:56;2.60;;;2.40;;
47882;SDS011;37739;50.350;7.578;2024-01-15T13:34:23;4.30;;;2.47;;
47882;SDS011;37739;50.350;7.578;2024-01-15T13:36:48;6.27;;;2.87;;
47882;SDS011;37739;50.350;7.578;2024-01-15T13:39:15;7.03;;;2.80;;
47882;SDS011;37739;50.350;7.578;2024-01-15T13:41:48;4.83;;;2.30;;
47882;SDS011;37739;50.350;7.578;2024-01-15T13:44:15;6.47;;;2.23;;
47882;SDS011;37739;50.350;7.578;2024-01-15T13:46:41;2.63;;;1.70;;
47882;SDS011;37739;50.350;7.578;2024-01-15T13:49:10;3.33;;;2.00;;
47882;SDS011;37739;50.350;7.578;2024-01-15T13:51:36;4.90;;;2.83;;
47882;SDS011;37739;50.350;7.578;2024-01-15T13:54:01;4.40;;;2.97;;
47882;SDS011;37739;50.350;7.578;2024-01-15T13:56:29;4.53;;;2.90;;
47882;SDS011;37739;50.350;7.578;2024-01-15T13:58:59;6.60;;;2.50;;
47882;SDS011;37739;50.350;7.578;2024-01-15T14:01:29;6.67;;;3.53;;
47882;SDS011;37739;50.350;7.578;2024-01-15T14:03:57;4.40;;;2.67;;
47882;SDS011;37739;50.350;7.578;2024-01-15T14:06:22;4.33;;;2.83;;
47882;SDS011;37739;50.350;7.578;2024-01-15T14:08:51;2.93;;;2.20;;
47882;SDS011;37739;50.350;7.578;2024-01-15T14:11:17;4.10;;;2.37;;
47882;SDS011;37739;50.350;7.578;2024-01-15T14:13:50;3.33;;;2.37;;
47882;SDS011;37739;50.350;7.578;2024-01-15T14:16:15;4.20;;;1.97;;
47882;SDS011;37739;50.350;7.578;2024-01-15T14:18:40;5.77;;;2.70;;
47882;SDS011;37739;50.350;7.578;2024-01-15T14:21:08;4.50;;;2.30;;
47882;SDS011;37739;50.350;7.578;2024-01-15T14:23:36;2.97;;;1.60;;
47882;SDS011;37739;50.350;7.578;2024-01-15T14:26:01;2.47;;;2.00;;
47882;SDS011;37739;50.350;7.578;2024-01-15T14:28:29;4.40;;;2.33;;
47882;SDS011;37739;50.350;7.578;2024-01-15T14:30:58;5.60;;;1.90;;
47882;SDS011;37739;50.350;7.578;2024-01-15T14:33:25;3.03;;;1.80;;
47882;SDS011;37739;50.350;7.578;2024-01-15T14:35:50;4.43;;;2.50;;
47882;SDS011;37739;50.350;7.578;2024-01-15T14:38:16;2.97;;;2.10;;
47882;SDS011;37739;50.350;7.578;2024-01-15T14:40:41;3.50;;;1.97;;
47882;SDS011;37739;50.350;7.578;2024-01-15T14:43:09;4.37;;;2.23;;
47882;SDS011;37739;50.350;7.578;2024-01-15T14:45:35;4.40;;;2.40;;